Time;durP1;ratioP1;P1;durP2;ratioP2;P2;SDS_P1;SDS_P2;PMS_P1;PMS_P2;Temp;Humidity;BMP_temperature;BMP_pressure;BME280_temperature;BME280_humidity;BME280_pressure;Samples;Min_cycle;Max_cycle;Signal;HPM_P1;HPM_P2
2023/08/02 00:00:42;;;;;;;19.20;8.30;;;;;;;28.45;48.75;99317.08;108089;1253;73022;-71
2023/08/02 00:03:10;;;;;;;13.10;9.20;;;;;;;28.57;48.62;99320.80;108134;1252;70232;-70
2023/08/02 00:05:37;;;;;;;13.80;9.90;;;;;;;28.62;48.70;99316.80;108222;1253;72717;-70
2023/08/02 00:08:04;;;;;;;10.70;9.50;;;;;;;28.72;48.95;99316.25;108139;1253;60773;-70
2023/08/02 00:10:35;;;;;;;16.80;11.00;;;;;;;28.67;49.33;99316.61;108210;1253;59978;-69
2023/08/02 00:13:05;;;;;;;10.30;7.90;;;;;;;28.57;49.43;99316.27;108175;1257;73141;-70
2023/08/02 00:15:37;;;;;;;12.00;9.80;;;;;;;28.50;49.41;99317.33;108044;1253;70128;-69
2023/08/02 00:18:05;;;;;;;11.10;8.60;;;;;;;28.59;49.32;99312.54;108161;1253;70825;-70
2023/08/02 00:20:32;;;;;;;9.70;8.20;;;;;;;28.56;49.29;99315.43;108185;1256;61664;-70
2023/08/02 00:22:59;;;;;;;11.60;10.00;;;;;;;28.42;49.36;99314.30;108228;1254;60181;-66
2023/08/02 00:25:27;;;;;;;12.10;9.00;;;;;;;28.34;49.67;99310.70;108266;1253;73070;-69
2023/08/02 00:27:54;;;;;;;12.30;10.80;;;;;;;28.31;49.93;99306.19;108145;1258;68092;-69
2023/08/02 00:30:22;;;;;;;18.90;10.80;;;;;;;28.38;49.49;99304.42;108172;1253;71402;-68
2023/08/02 00:32:49;;;;;;;14.00;10.00;;;;;;;28.33;49.69;99302.36;108075;1253;61654;-69
2023/08/02 00:35:17;;;;;;;14.20;10.70;;;;;;;28.38;49.55;99304.04;108107;1253;60010;-70
2023/08/02 00:37:45;;;;;;;14.80;9.40;;;;;;;28.34;49.54;99307.81;108177;1252;73487;-69
2023/08/02 00:40:12;;;;;;;14.90;11.20;;;;;;;28.35;49.64;99307.97;107980;1258;69930;-69
2023/08/02 00:42:39;;;;;;;10.60;9.50;;;;;;;28.20;49.82;99307.67;108110;1253;72470;-71
2023/08/02 00:45:08;;;;;;;11.30;9.90;;;;;;;28.10;50.22;99308.10;108100;1253;61712;-70
2023/08/02 00:47:35;;;;;;;13.60;10.10;;;;;;;28.06;50.00;99310.52;108208;1254;60041;-71
2023/08/02 00:50:03;;;;;;;15.30;10.50;;;;;;;28.06;50.23;99318.50;108156;1253;73078;-70
2023/08/02 00:52:31;;;;;;;10.60;9.50;;;;;;;27.93;50.67;99316.09;108191;1256;68728;-69
2023/08/02 00:54:58;;;;;;;16.40;12.50;;;;;;;27.88;50.81;99315.20;108060;1253;72634;-70
2023/08/02 00:57:26;;;;;;;10.20;9.20;;;;;;;28.06;50.47;99310.76;108085;1252;60523;-70
2023/08/02 00:59:53;;;;;;;17.00;11.40;;;;;;;28.15;50.09;99310.91;108276;1253;59405;-70
2023/08/02 01:02:20;;;;;;;14.60;10.80;;;;;;;28.07;50.41;99311.61;107944;1253;71814;-70
2023/08/02 01:04:48;;;;;;;12.30;10.50;;;;;;;28.02;50.55;99314.21;108128;1257;69914;-69
2023/08/02 01:07:52;;;;;;;17.80;14.50;;;;;;;28.18;50.28;99311.88;108267;1253;71917;-70
2023/08/02 01:10:27;;;;;;;17.60;13.70;;;;;;;28.25;50.67;99309.06;108120;1255;60359;-70
2023/08/02 01:12:54;;;;;;;13.00;11.40;;;;;;;28.16;51.02;99309.59;108117;1253;59021;-69
2023/08/02 01:15:22;;;;;;;18.00;12.60;;;;;;;28.03;50.94;99309.06;108122;1253;71906;-69
2023/08/02 01:17:50;;;;;;;14.90;11.40;;;;;;;28.10;50.30;99307.69;107951;1254;70031;-70
2023/08/02 01:20:18;;;;;;;14.70;12.10;;;;;;;28.02;50.42;99313.25;108083;1253;71412;-69
2023/08/02 01:22:45;;;;;;;14.40;12.30;;;;;;;27.99;50.33;99314.14;108083;1253;60414;-71
2023/08/02 01:25:12;;;;;;;14.20;11.20;;;;;;;27.93;50.36;99309.94;108124;1258;59365;-70
2023/08/02 01:27:44;;;;;;;12.20;9.90;;;;;;;27.97;50.30;99308.45;108045;1253;72233;-72
2023/08/02 01:30:14;;;;;;;11.70;9.90;;;;;;;27.99;50.16;99302.52;108011;1253;70035;-72
2023/08/02 01:32:42;;;;;;;14.30;9.20;;;;;;;27.95;50.00;99302.71;108136;1253;72698;-70
2023/08/02 01:35:09;;;;;;;13.40;9.10;;;;;;;27.91;49.85;99302.30;107962;1256;60631;-70
2023/08/02 01:37:37;;;;;;;14.40;9.70;;;;;;;27.81;50.21;99301.69;107966;1253;60032;-69
2023/08/02 01:40:05;;;;;;;15.80;11.20;;;;;;;27.10;51.62;99300.84;107939;1253;71664;-71
2023/08/02 01:42:32;;;;;;;23.20;17.50;;;;;;;27.16;51.89;99306.27;107963;1258;69045;-70
2023/08/02 01:44:59;;;;;;;15.90;13.70;;;;;;;26.91;53.46;99302.90;107990;1253;72722;-72
2023/08/02 01:47:27;;;;;;;15.30;13.10;;;;;;;27.18;53.48;99305.60;108000;1255;61613;-69
2023/08/02 01:49:54;;;;;;;17.20;13.40;;;;;;;27.31;53.14;99300.86;108108;1253;59091;-68
2023/08/02 01:52:22;;;;;;;17.30;14.70;;;;;;;27.31;53.13;99298.91;107963;1254;73272;-71
2023/08/02 01:54:49;;;;;;;16.90;11.90;;;;;;;27.53;52.81;99303.25;108119;1253;70425;-69
2023/08/02 01:57:17;;;;;;;12.40;10.60;;;;;;;27.57;52.18;99301.54;108107;1253;71477;-70
2023/08/02 01:59:44;;;;;;;13.30;10.80;;;;;;;27.55;51.98;99306.61;107930;1256;61723;-71
2023/08/02 02:02:11;;;;;;;16.70;12.90;;;;;;;27.59;51.49;99306.34;107955;1253;60010;-70
2023/08/02 02:04:39;;;;;;;13.50;11.30;;;;;;;27.43;51.99;99307.35;108218;1253;72888;-70
2023/08/02 02:07:06;;;;;;;18.80;14.80;;;;;;;27.41;52.06;99301.88;108078;1253;70329;-71
2023/08/02 02:09:35;;;;;;;13.70;12.20;;;;;;;27.26;52.11;99309.36;108011;1255;73162;-69
2023/08/02 02:12:03;;;;;;;21.30;14.00;;;;;;;27.10;52.50;99310.27;108024;1254;60837;-70
2023/08/02 02:14:31;;;;;;;21.10;15.90;;;;;;;27.08;52.63;99307.95;107998;1253;59026;-70
2023/08/02 02:16:58;;;;;;;19.10;14.40;;;;;;;26.83;53.40;99310.54;107915;1258;73816;-69
2023/08/02 02:19:25;;;;;;;24.30;17.30;;;;;;;27.24;52.78;99308.36;108011;1253;70020;-70
2023/08/02 02:21:53;;;;;;;16.60;14.20;;;;;;;27.16;52.96;99299.98;107980;1253;72829;-69
2023/08/02 02:24:20;;;;;;;20.70;17.00;;;;;;;27.22;53.19;99298.75;107942;1254;60420;-70
2023/08/02 02:26:47;;;;;;;23.90;15.50;;;;;;;27.14;53.29;99300.20;108139;1253;60418;-70
2023/08/02 02:29:15;;;;;;;22.60;17.20;;;;;;;27.30;52.88;99302.83;108111;1253;72380;-71
2023/08/02 02:31:43;;;;;;;27.50;20.40;;;;;;;27.32;52.93;99299.34;108131;1254;69084;-69
2023/08/02 02:34:11;;;;;;;28.80;19.80;;;;;;;27.71;52.44;99305.79;108052;1258;71652;-71
2023/08/02 02:36:38;;;;;;;16.20;14.10;;;;;;;27.88;52.02;99306.97;108105;1258;60312;-70
2023/08/02 02:39:06;;;;;;;23.80;18.00;;;;;;;27.95;52.11;99306.10;108183;1254;59951;-69
2023/08/02 02:41:35;;;;;;;18.90;14.20;;;;;;;28.10;51.83;99304.44;108174;1251;73842;-70
2023/08/02 02:44:02;;;;;;;22.10;18.10;;;;;;;28.22;51.36;99301.28;108140;1253;70155;-69
2023/08/02 02:46:29;;;;;;;21.00;16.20;;;;;;;28.19;51.43;99300.18;108171;1258;72826;-67
2023/08/02 02:48:57;;;;;;;26.70;18.00;;;;;;;28.25;51.12;99302.02;108234;1254;61676;-68
2023/08/02 02:51:24;;;;;;;20.50;16.30;;;;;;;28.16;51.23;99301.27;108234;1253;60329;-68
2023/08/02 02:53:51;;;;;;;19.50;17.00;;;;;;;28.13;51.18;99302.48;108078;1254;72919;-68
2023/08/02 02:56:19;;;;;;;19.70;16.40;;;;;;;28.25;51.04;99299.45;108110;1257;69296;-72
2023/08/02 02:58:46;;;;;;;19.60;16.40;;;;;;;28.20;51.03;99303.55;108018;1258;72719;-69
2023/08/02 03:01:14;;;;;;;16.20;13.40;;;;;;;28.13;50.84;99302.64;108178;1254;61612;-70
2023/08/02 03:03:41;;;;;;;21.00;17.60;;;;;;;28.10;50.69;99306.44;108190;1253;59994;-70
2023/08/02 03:06:09;;;;;;;19.30;16.30;;;;;;;28.23;50.85;99309.71;108184;1254;73826;-72
2023/08/02 03:08:36;;;;;;;19.40;16.30;;;;;;;28.25;51.19;99310.68;108150;1253;69354;-71
2023/08/02 03:11:04;;;;;;;23.00;19.40;;;;;;;28.33;51.26;99307.57;108105;1258;71564;-70
2023/08/02 03:13:31;;;;;;;27.50;18.90;;;;;;;28.40;51.36;99306.10;108064;1259;60396;-70
2023/08/02 03:15:58;;;;;;;30.30;20.30;;;;;;;28.40;51.58;99304.31;108088;1254;60320;-70
2023/08/02 03:18:26;;;;;;;25.70;20.50;;;;;;;28.49;51.79;99306.96;108177;1255;74215;-70
2023/08/02 03:20:53;;;;;;;28.20;20.60;;;;;;;28.66;52.05;99303.60;108113;1253;69297;-71
2023/08/02 03:23:20;;;;;;;29.90;21.50;;;;;;;28.74;51.96;99301.75;107908;1254;72937;-70
2023/08/02 03:25:48;;;;;;;17.90;14.90;;;;;;;28.82;52.03;99299.83;108187;1253;61649;-71
2023/08/02 03:28:15;;;;;;;22.50;18.30;;;;;;;29.00;51.33;99296.40;108163;1254;60341;-69
2023/08/02 03:30:42;;;;;;;22.70;18.80;;;;;;;28.90;51.79;99293.36;107971;1253;73800;-70
2023/08/02 03:33:10;;;;;;;15.30;13.40;;;;;;;29.02;51.64;99297.41;108133;1256;68618;-70
2023/08/02 03:35:37;;;;;;;20.80;17.60;;;;;;;29.38;51.39;99294.73;107949;1259;72689;-70
2023/08/02 03:38:04;;;;;;;20.70;15.40;;;;;;;29.87;50.70;99300.20;108114;1254;61600;-69
2023/08/02 03:40:32;;;;;;;21.00;16.00;;;;;;;30.43;49.49;99294.02;108009;1255;60203;-69
2023/08/02 03:42:59;;;;;;;19.40;13.90;;;;;;;30.89;48.37;99295.13;108008;1254;73963;-70
2023/08/02 03:45:27;;;;;;;18.00;13.20;;;;;;;31.33;47.25;99297.45;108039;1254;69227;-71
2023/08/02 03:47:54;;;;;;;15.80;13.70;;;;;;;31.79;46.03;99298.53;107987;1254;72646;-69
2023/08/02 03:50:21;;;;;;;16.30;13.30;;;;;;;32.03;45.68;99304.94;107931;1259;62259;-70
2023/08/02 03:52:49;;;;;;;19.80;13.70;;;;;;;32.22;44.91;99301.11;107957;1255;60501;-69
2023/08/02 03:55:16;;;;;;;15.60;12.60;;;;;;;32.36;44.42;99301.10;107978;1254;73788;-70
2023/08/02 03:57:44;;;;;;;14.60;11.20;;;;;;;32.67;44.13;99302.64;107915;1254;69931;-71
2023/08/02 04:00:11;;;;;;;17.00;12.70;;;;;;;33.09;43.15;99297.13;107967;1259;72417;-69
2023/08/02 04:02:38;;;;;;;17.10;12.00;;;;;;;33.34;42.66;99293.52;108087;1256;60400;-70
2023/08/02 04:05:06;;;;;;;17.00;11.30;;;;;;;33.73;41.97;99296.45;108078;1254;60277;-69
2023/08/02 04:07:33;;;;;;;14.90;11.60;;;;;;;34.04;40.93;99295.15;107966;1260;64944;-70
2023/08/02 04:10:01;;;;;;;16.40;11.70;;;;;;;34.24;40.80;99292.45;107963;1254;60537;-71
2023/08/02 04:12:28;;;;;;;15.30;11.10;;;;;;;34.43;40.35;99293.08;107980;1253;63760;-70
2023/08/02 04:14:55;;;;;;;12.80;11.30;;;;;;;34.58;39.35;99287.56;107874;1254;60347;-70
2023/08/02 04:17:25;;;;;;;11.40;9.90;;;;;;;34.48;39.06;99282.69;108075;1253;60418;-71
2023/08/02 04:19:53;;;;;;;12.60;10.20;;;;;;;34.65;39.12;99279.42;108061;1253;64920;-71
2023/08/02 04:22:20;;;;;;;14.60;9.60;;;;;;;34.90;38.97;99281.09;107964;1260;60405;-69
2023/08/02 04:24:48;;;;;;;11.50;10.10;;;;;;;35.05;38.76;99281.02;108065;1254;63875;-71
2023/08/02 04:27:15;;;;;;;13.80;10.00;;;;;;;34.79;39.07;99278.41;108136;1255;60360;-71
2023/08/02 04:29:43;;;;;;;11.70;9.40;;;;;;;34.68;39.22;99276.42;108128;1254;60292;-71
2023/08/02 04:32:10;;;;;;;12.50;9.40;;;;;;;34.89;38.67;99270.98;108030;1254;64934;-70
2023/08/02 04:34:38;;;;;;;10.60;8.10;;;;;;;35.37;38.32;99273.88;108136;1252;61631;-69
2023/08/02 04:37:05;;;;;;;12.00;9.20;;;;;;;35.79;37.63;99275.81;108120;1254;63716;-71
2023/08/02 04:39:33;;;;;;;12.20;9.30;;;;;;;35.84;36.98;99274.91;108009;1254;61650;-69
2023/08/02 04:42:00;;;;;;;12.10;9.10;;;;;;;36.06;36.84;99276.58;108115;1253;60460;-71
2023/08/02 04:44:28;;;;;;;13.20;9.20;;;;;;;36.26;36.63;99272.30;108120;1254;63922;-70
2023/08/02 04:46:56;;;;;;;11.40;9.50;;;;;;;36.18;36.71;99269.86;108119;1253;61323;-69
2023/08/02 04:49:23;;;;;;;10.90;8.10;;;;;;;36.27;36.29;99264.73;108148;1254;63210;-71
2023/08/02 04:51:50;;;;;;;10.00;8.20;;;;;;;36.60;35.94;99263.55;107950;1254;60550;-70
2023/08/02 04:54:18;;;;;;;10.40;8.70;;;;;;;37.04;35.60;99259.40;108121;1253;59250;-69
2023/08/02 04:56:45;;;;;;;12.00;8.60;;;;;;;37.30;34.77;99261.77;108032;1253;64998;-71
2023/08/02 04:59:13;;;;;;;12.10;9.50;;;;;;;37.09;34.97;99259.03;108062;1258;61534;-71
2023/08/02 05:01:41;;;;;;;10.40;8.40;;;;;;;37.03;35.04;99258.17;108179;1257;62658;-71
2023/08/02 05:04:09;;;;;;;9.20;8.10;;;;;;;37.06;35.02;99252.73;108138;1254;60395;-71
2023/08/02 05:06:36;;;;;;;8.90;7.70;;;;;;;37.37;34.72;99249.50;108047;1252;59138;-70
2023/08/02 05:09:04;;;;;;;10.10;7.30;;;;;;;37.66;34.51;99251.83;108135;1254;63717;-72
2023/08/02 05:11:32;;;;;;;17.20;8.00;;;;;;;37.97;34.18;99253.75;108213;1256;60715;-72
2023/08/02 05:13:59;;;;;;;11.20;8.40;;;;;;;38.12;33.65;99247.98;107932;1254;63780;-71
2023/08/02 05:16:27;;;;;;;13.20;8.60;;;;;;;38.08;33.64;99242.66;108059;1254;60412;-71
2023/08/02 05:18:55;;;;;;;12.00;7.30;;;;;;;38.31;33.46;99242.63;108079;1254;60562;-70
2023/08/02 05:21:25;;;;;;;11.20;7.90;;;;;;;38.68;32.86;99243.46;108141;1254;63604;-70
2023/08/02 05:23:53;;;;;;;11.10;7.50;;;;;;;38.92;32.36;99241.24;108062;1254;60393;-70
2023/08/02 05:26:22;;;;;;;6.80;5.80;;;;;;;39.05;31.92;99245.42;108098;1254;63689;-71
2023/08/02 05:28:49;;;;;;;8.00;6.40;;;;;;;38.98;31.59;99248.88;108066;1253;60623;-72
2023/08/02 05:31:16;;;;;;;9.80;6.20;;;;;;;38.65;31.72;99246.02;108129;1254;60253;-71
2023/08/02 05:33:46;;;;;;;9.70;6.20;;;;;;;38.49;32.31;99245.66;108061;1254;64959;-70
2023/08/02 05:36:14;;;;;;;12.80;7.10;;;;;;;38.14;32.78;99251.06;108016;1254;70182;-69
2023/08/02 05:38:42;;;;;;;8.10;6.60;;;;;;;37.97;33.02;99249.84;107978;1258;63738;-70
2023/08/02 05:41:10;;;;;;;10.40;6.40;;;;;;;38.10;33.12;99251.65;107971;1253;60348;-72
2023/08/02 05:43:41;;;;;;;12.40;7.00;;;;;;;38.27;32.76;99255.34;108021;1254;60376;-69
2023/08/02 05:46:10;;;;;;;10.50;6.90;;;;;;;38.42;32.61;99249.89;107966;1253;63628;-72
2023/08/02 05:48:38;;;;;;;9.40;6.80;;;;;;;38.61;32.48;99249.40;108011;1253;60485;-71
2023/08/02 05:51:05;;;;;;;12.00;7.50;;;;;;;38.89;32.11;99243.16;107997;1254;63172;-71
2023/08/02 05:53:33;;;;;;;11.70;7.10;;;;;;;39.07;31.79;99247.24;107964;1255;60569;-71
2023/08/02 05:56:00;;;;;;;9.40;7.20;;;;;;;39.36;31.45;99247.16;108041;1254;60417;-72
2023/08/02 05:58:28;;;;;;;9.40;6.50;;;;;;;39.55;30.94;99246.27;108034;1254;65073;-71
2023/08/02 06:00:55;;;;;;;7.50;6.60;;;;;;;39.52;30.92;99242.52;108099;1254;61647;-71
2023/08/02 06:03:22;;;;;;;10.50;6.80;;;;;;;39.52;30.88;99244.04;107996;1258;62439;-72
2023/08/02 06:05:50;;;;;;;9.40;7.00;;;;;;;39.40;30.89;99243.75;108087;1255;60363;-72
2023/08/02 06:08:17;;;;;;;10.90;7.40;;;;;;;39.00;31.74;99242.44;108046;1254;59261;-70
2023/08/02 06:10:45;;;;;;;8.90;7.00;;;;;;;38.78;31.85;99247.16;107907;1254;63809;-71
2023/08/02 06:13:12;;;;;;;10.50;7.00;;;;;;;38.57;31.96;99242.62;108028;1254;60319;-71
2023/08/02 06:15:40;;;;;;;10.40;8.50;;;;;;;38.69;31.72;99243.58;108000;1253;71628;-71
2023/08/02 06:18:07;;;;;;;8.30;6.70;;;;;;;38.96;31.63;99239.23;107885;1254;61054;-71
2023/08/02 06:20:34;;;;;;;11.70;7.00;;;;;;;39.47;30.70;99239.05;108094;1253;60370;-71
2023/08/02 06:23:02;;;;;;;11.60;7.40;;;;;;;39.30;30.83;99239.23;108021;1254;64920;-71
2023/08/02 06:25:29;;;;;;;11.00;6.80;;;;;;;39.87;30.22;99238.11;108162;1254;61417;-71
2023/08/02 06:27:57;;;;;;;8.60;6.20;;;;;;;39.95;30.03;99235.05;108156;1254;63711;-72
2023/08/02 06:30:24;;;;;;;9.10;7.10;;;;;;;39.72;30.21;99234.88;108098;1254;59676;-72
2023/08/02 06:32:51;;;;;;;7.90;6.40;;;;;;;39.92;30.07;99237.15;108143;1254;60479;-71
2023/08/02 06:35:19;;;;;;;12.70;7.50;;;;;;;40.07;29.95;99236.42;108180;1254;64944;-70
2023/08/02 06:37:46;;;;;;;9.80;6.00;;;;;;;40.44;30.09;99229.22;108162;1254;61396;-72
2023/08/02 06:40:13;;;;;;;8.80;6.30;;;;;;;40.46;29.66;99227.45;108064;1257;64069;-72
2023/08/02 06:42:41;;;;;;;7.90;5.70;;;;;;;40.77;29.37;99234.52;108206;1257;60417;-72
2023/08/02 06:45:09;;;;;;;11.50;7.60;;;;;;;40.76;29.13;99232.86;108154;1254;60312;-70
2023/08/02 06:47:36;;;;;;;9.40;7.20;;;;;;;40.51;29.62;99231.09;108156;1254;63616;-71
2023/08/02 06:50:04;;;;;;;8.50;6.80;;;;;;;40.16;29.58;99228.05;108282;1254;60377;-70
2023/08/02 06:52:32;;;;;;;10.90;6.90;;;;;;;39.60;30.22;99227.98;108097;1254;63848;-72
2023/08/02 06:54:59;;;;;;;10.50;6.80;;;;;;;39.35;30.57;99230.23;108181;1254;60328;-71
2023/08/02 06:57:31;;;;;;;7.70;5.90;;;;;;;39.21;30.41;99231.97;108189;1253;60337;-71
2023/08/02 06:59:58;;;;;;;7.70;5.70;;;;;;;39.15;30.26;99234.83;108115;1253;64967;-71
2023/08/02 07:02:26;;;;;;;8.80;5.80;;;;;;;39.00;30.33;99232.11;108152;1254;61372;-71
2023/08/02 07:04:53;;;;;;;8.60;5.50;;;;;;;39.08;30.49;99231.28;108236;1254;62418;-72
2023/08/02 07:07:21;;;;;;;8.40;5.90;;;;;;;38.99;30.43;99230.66;108107;1253;60408;-72
2023/08/02 07:09:48;;;;;;;9.40;6.10;;;;;;;39.01;30.37;99229.75;108199;1253;59170;-71
2023/08/02 07:12:16;;;;;;;8.10;5.50;;;;;;;39.28;30.14;99230.35;108137;1254;66023;-73
2023/08/02 07:14:43;;;;;;;8.10;5.80;;;;;;;39.41;30.00;99227.46;108175;1254;61528;-71
2023/08/02 07:17:10;;;;;;;7.30;6.20;;;;;;;39.12;30.28;99222.39;108117;1254;63866;-72
2023/08/02 07:19:38;;;;;;;8.40;5.70;;;;;;;38.93;30.33;99230.34;108183;1257;58601;-71
2023/08/02 07:22:05;;;;;;;6.20;4.90;;;;;;;38.87;30.35;99223.32;108067;1254;59137;-73
2023/08/02 07:24:33;;;;;;;7.60;6.30;;;;;;;38.98;30.52;99221.64;108164;1254;64944;-70
2023/08/02 07:27:00;;;;;;;11.40;5.60;;;;;;;38.97;30.11;99225.27;108203;1254;61322;-71
2023/08/02 07:29:27;;;;;;;8.90;5.30;;;;;;;38.87;30.39;99222.43;108162;1254;62419;-71
2023/08/02 07:31:55;;;;;;;9.20;5.10;;;;;;;39.31;30.25;99223.23;108094;1254;60319;-71
2023/08/02 07:34:22;;;;;;;9.70;5.20;;;;;;;39.65;29.32;99222.88;108214;1252;61075;-71
2023/08/02 07:36:50;;;;;;;7.80;5.60;;;;;;;40.10;29.06;99221.64;108187;1253;64905;-72
2023/08/02 07:39:17;;;;;;;10.80;5.70;;;;;;;40.47;28.65;99226.28;108271;1253;60309;-72
2023/08/02 07:41:44;;;;;;;7.70;5.30;;;;;;;40.66;28.37;99225.35;108169;1253;71542;-71
2023/08/02 07:44:14;;;;;;;12.90;6.00;;;;;;;40.87;28.02;99225.30;108150;1254;59443;-71
2023/08/02 07:46:41;;;;;;;9.70;5.10;;;;;;;40.61;27.75;99230.38;108182;1254;60428;-71
2023/08/02 07:49:09;;;;;;;8.20;5.60;;;;;;;39.88;28.13;99225.21;108199;1252;64902;-72
2023/08/02 07:51:37;;;;;;;6.90;5.90;;;;;;;39.21;29.11;99224.46;108267;1253;60405;-72
2023/08/02 07:54:04;;;;;;;9.20;5.70;;;;;;;38.97;29.54;99222.13;108192;1254;62535;-70
2023/08/02 07:56:32;;;;;;;6.30;5.70;;;;;;;38.90;29.69;99221.08;108130;1255;60358;-71
2023/08/02 07:58:59;;;;;;;9.80;5.50;;;;;;;39.11;29.29;99229.59;108188;1253;60322;-72
2023/08/02 08:01:30;;;;;;;9.40;6.00;;;;;;;39.14;29.64;99227.52;108156;1253;64878;-72
2023/08/02 08:03:58;;;;;;;6.10;5.50;;;;;;;38.98;29.73;99225.91;108228;1254;61346;-72
2023/08/02 08:06:25;;;;;;;8.20;5.50;;;;;;;39.20;29.33;99221.60;108157;1254;63811;-72
2023/08/02 08:08:52;;;;;;;8.50;5.70;;;;;;;39.26;29.18;99222.02;108162;1253;60405;-71
2023/08/02 08:11:20;;;;;;;8.70;5.40;;;;;;;39.57;28.72;99218.14;108184;1254;60388;-71
2023/08/02 08:13:52;;;;;;;6.60;5.10;;;;;;;40.21;27.94;99224.42;108120;1254;63886;-71
2023/08/02 08:16:19;;;;;;;6.00;5.40;;;;;;;40.65;27.38;99217.30;108126;1254;60083;-72
2023/08/02 08:18:47;;;;;;;8.00;5.80;;;;;;;40.90;27.48;99212.88;108152;1253;62460;-71
2023/08/02 08:21:17;;;;;;;;;;;;;;;40.98;27.48;99206.55;108076;1254;60416;-71
2023/08/02 08:23:45;;;;;;;6.70;5.30;;;;;;;41.06;27.13;99207.88;108034;1254;60521;-71
2023/08/02 08:26:12;;;;;;;7.10;5.40;;;;;;;40.83;27.36;99210.35;108062;1253;63826;-71
2023/08/02 08:28:40;;;;;;;8.30;5.30;;;;;;;40.99;27.19;99204.02;108133;1253;61459;-71
2023/08/02 08:31:07;;;;;;;7.70;5.70;;;;;;;41.18;26.67;99201.99;108096;1253;65969;-71
2023/08/02 08:33:34;;;;;;;8.30;5.10;;;;;;;41.18;26.51;99202.44;108061;1254;59153;-71
2023/08/02 08:36:02;;;;;;;5.10;3.90;;;;;;;40.99;25.98;99206.66;108108;1254;60448;-74
2023/08/02 08:38:30;;;;;;;9.40;5.10;;;;;;;40.32;25.98;99204.86;108055;1253;64960;-72
2023/08/02 08:40:58;;;;;;;6.20;4.90;;;;;;;40.39;26.14;99200.85;108098;1254;61826;-72
2023/08/02 08:43:26;;;;;;;8.50;5.40;;;;;;;40.68;26.15;99197.04;108091;1253;63821;-72
2023/08/02 08:45:54;;;;;;;9.50;5.80;;;;;;;40.64;26.58;99198.25;108160;1254;60495;-72
2023/08/02 08:48:23;;;;;;;8.00;5.50;;;;;;;40.41;26.77;99194.73;108131;1254;60333;-72
2023/08/02 08:50:50;;;;;;;6.80;4.80;;;;;;;40.70;26.59;99191.48;108081;1253;64892;-71
2023/08/02 08:53:22;;;;;;;7.80;5.10;;;;;;;40.71;26.42;99195.29;108045;1253;61434;-72
2023/08/02 08:55:50;;;;;;;7.00;4.70;;;;;;;40.64;26.54;99195.51;108058;1254;62988;-70
2023/08/02 08:58:17;;;;;;;8.20;4.80;;;;;;;40.63;26.39;99189.88;108030;1254;60365;-72
2023/08/02 09:00:44;;;;;;;9.40;5.00;;;;;;;41.00;26.19;99186.14;107870;1260;60342;-71
2023/08/02 09:03:15;;;;;;;5.90;5.10;;;;;;;41.47;25.57;99181.61;107832;1260;63857;-71
2023/08/02 09:05:42;;;;;;;5.30;4.70;;;;;;;41.90;25.32;99187.32;108090;1253;61354;-71
2023/08/02 09:08:10;;;;;;;13.10;5.20;;;;;;;42.03;25.06;99179.73;108031;1253;63720;-70
2023/08/02 09:10:39;;;;;;;5.60;4.70;;;;;;;42.01;25.19;99177.86;108100;1253;60320;-70
2023/08/02 09:13:20;;;;;;;6.60;4.70;;;;;;;42.01;24.90;99181.13;108142;1252;60528;-72
2023/08/02 09:16:03;;;;;;;6.50;4.60;;;;;;;41.63;25.10;99180.98;108150;1252;64986;-71
2023/08/02 09:18:38;;;;;;;6.70;4.40;;;;;;;41.20;25.76;99180.39;108135;1253;60434;-71
2023/08/02 09:21:06;;;;;;;5.90;4.30;;;;;;;41.04;25.81;99173.09;108135;1253;63729;-71
2023/08/02 09:23:33;;;;;;;5.40;4.10;;;;;;;41.18;25.71;99173.05;108082;1253;60451;-72
2023/08/02 09:26:17;;;;;;;6.30;4.50;;;;;;;41.35;25.60;99171.51;108079;1253;60428;-70
2023/08/02 09:29:12;;;;;;;5.40;4.90;;;;;;;41.50;25.73;99164.88;108055;1253;63701;-71
2023/08/02 09:31:39;;;;;;;6.30;4.80;;;;;;;41.20;25.87;99169.16;108026;1253;60223;-72
2023/08/02 09:34:08;;;;;;;7.50;4.80;;;;;;;40.73;25.59;99166.41;108079;1253;63826;-72
2023/08/02 09:36:35;;;;;;;6.20;4.80;;;;;;;40.74;25.81;99158.64;108008;1254;60530;-71
2023/08/02 09:39:18;;;;;;;5.50;4.50;;;;;;;40.15;26.37;99163.14;108038;1253;60445;-70
2023/08/02 09:41:46;;;;;;;10.10;4.80;;;;;;;39.82;26.94;99164.70;108053;1258;63696;-71
2023/08/02 09:44:27;;;;;;;5.10;4.60;;;;;;;39.76;27.18;99155.91;108097;1253;61376;-70
2023/08/02 09:46:54;;;;;;;7.30;5.10;;;;;;;39.53;27.37;99151.75;107793;1253;63886;-70
2023/08/02 09:49:22;;;;;;;5.40;4.60;;;;;;;39.41;27.35;99152.66;108055;1254;60364;-71
2023/08/02 09:51:49;;;;;;;5.20;4.20;;;;;;;39.41;27.25;99147.21;108044;1253;60300;-71
2023/08/02 09:54:17;;;;;;;5.60;4.40;;;;;;;39.63;27.47;99148.42;108044;1253;63632;-72
2023/08/02 09:56:44;;;;;;;5.20;4.30;;;;;;;39.79;26.95;99148.92;108011;1253;60201;-71
2023/08/02 09:59:12;;;;;;;6.60;4.40;;;;;;;39.99;26.85;99143.89;107971;1253;64026;-71
2023/08/02 10:01:39;;;;;;;8.40;4.60;;;;;;;40.38;26.23;99142.04;107898;1254;60369;-73
2023/08/02 10:04:08;;;;;;;5.10;4.20;;;;;;;40.39;26.50;99138.79;108073;1254;60491;-70
2023/08/02 10:06:43;;;;;;;6.20;4.60;;;;;;;40.67;26.32;99134.02;108180;1253;64943;-71
2023/08/02 10:09:13;;;;;;;6.90;4.50;;;;;;;40.99;25.59;99132.23;108097;1255;60760;-71
2023/08/02 10:11:45;;;;;;;6.00;4.50;;;;;;;41.29;25.23;99138.09;108035;1254;63828;-71
2023/08/02 10:14:13;;;;;;;5.10;4.50;;;;;;;41.35;24.77;99135.04;108005;1253;60335;-69
2023/08/02 10:20:04;;;;;;;6.80;4.40;;;;;;;38.15;28.65;99137.61;104738;1291;600788;-72
2023/08/02 10:22:31;;;;;;;6.10;4.80;;;;;;;39.56;26.81;99139.42;107235;1266;59156;-71
2023/08/02 10:24:58;;;;;;;6.90;4.40;;;;;;;39.77;26.60;99135.30;107267;1270;59240;-71
2023/08/02 10:27:24;;;;;;;12.50;4.80;;;;;;;39.69;26.65;99136.09;107231;1266;59588;-70
2023/08/02 10:29:52;;;;;;;5.60;4.60;;;;;;;39.57;26.89;99128.45;107184;1266;61513;-71
2023/08/02 10:32:22;;;;;;;4.60;4.00;;;;;;;39.67;26.91;99122.09;107272;1259;235471;-71
2023/08/02 10:34:50;;;;;;;15.80;5.00;;;;;;;39.79;26.73;99123.46;107662;1262;59165;-70
2023/08/02 10:37:18;;;;;;;5.60;4.80;;;;;;;39.89;26.65;99121.48;107696;1260;59635;-71
2023/08/02 10:39:45;;;;;;;5.70;4.20;;;;;;;39.55;27.02;99120.08;107707;1258;63449;-72
2023/08/02 10:42:21;;;;;;;9.30;5.00;;;;;;;39.06;27.19;99116.14;107763;1259;59277;-73
2023/08/02 10:45:16;;;;;;;9.00;4.90;;;;;;;39.39;27.16;99116.84;107720;1259;64148;-72
2023/08/02 10:47:45;;;;;;;6.60;5.00;;;;;;;39.32;27.39;99112.41;107713;1262;59523;-72
2023/08/02 10:50:42;;;;;;;6.30;4.90;;;;;;;39.27;27.51;99111.40;108350;1251;59475;-72
2023/08/02 10:53:08;;;;;;;6.10;4.70;;;;;;;39.76;27.39;99110.11;108320;1251;64231;-72
2023/08/02 10:55:35;;;;;;;6.80;4.40;;;;;;;39.88;27.01;99101.74;108319;1251;61685;-74
2023/08/02 10:58:05;;;;;;;9.40;4.40;;;;;;;39.92;27.16;99098.33;108311;1255;59545;-71
2023/08/02 11:00:34;;;;;;;6.80;4.30;;;;;;;40.04;26.94;99092.34;108211;1256;59504;-71
2023/08/02 11:03:01;;;;;;;4.80;3.90;;;;;;;39.99;26.99;99089.30;108126;1253;59673;-73
2023/08/02 11:05:41;;;;;;;5.10;4.20;;;;;;;39.83;27.27;99082.57;108152;1253;63146;-71
2023/08/02 11:08:08;;;;;;;4.30;3.90;;;;;;;40.17;26.73;99078.17;108132;1253;61522;-72
2023/08/02 11:10:53;;;;;;;4.90;4.10;;;;;;;40.26;26.49;99073.48;108160;1252;63819;-72
2023/08/02 11:13:20;;;;;;;6.10;4.40;;;;;;;40.45;26.26;99064.46;108167;1253;59546;-71
2023/08/02 11:15:46;;;;;;;6.70;3.60;;;;;;;40.43;26.33;99058.13;108134;1253;59517;-71
2023/08/02 11:18:14;;;;;;;4.70;3.80;;;;;;;40.45;26.20;99051.78;108209;1252;64283;-72
2023/08/02 11:20:41;;;;;;;4.80;4.10;;;;;;;40.82;26.39;99047.92;108227;1253;61488;-72
2023/08/02 11:23:23;;;;;;;4.50;4.00;;;;;;;41.05;25.94;99048.11;108153;1252;63924;-72
2023/08/02 11:25:50;;;;;;;4.30;3.70;;;;;;;41.22;25.61;99044.95;108187;1253;59526;-71
2023/08/02 11:28:52;;;;;;;10.60;3.90;;;;;;;41.18;25.56;99051.48;108220;1253;59106;-72